sensor_id;sensor_type;location;lat;lon;timestamp;P1;durP1;ratioP1;P2;durP2;ratioP2
79308;SDS011;68767;53.078;7.386;2023-09-30T00:01:47;26.35;;;5.35;;
79308;SDS011;68767;53.078;7.386;2023-09-30T00:04:14;17.08;;;5.38;;
79308;SDS011;68767;53.078;7.386;2023-09-30T00:06:41;24.27;;;4.70;;
79308;SDS011;68767;53.078;7.386;2023-09-30T00:09:08;19.05;;;4.72;;
79308;SDS011;68767;53.078;7.386;2023-09-30T00:11:35;24.35;;;4.15;;
79308;SDS011;68767;53.078;7.386;2023-09-30T00:14:02;19.48;;;5.22;;
79308;SDS011;68767;53.078;7.386;2023-09-30T00:16:31;22.50;;;4.43;;
79308;SDS011;68767;53.078;7.386;2023-09-30T00:18:58;20.98;;;4.55;;
79308;SDS011;68767;53.078;7.386;2023-09-30T00:21:25;14.50;;;4.50;;
79308;SDS011;68767;53.078;7.386;2023-09-30T00:23:52;26.98;;;6.50;;
79308;SDS011;68767;53.078;7.386;2023-09-30T00:26:19;25.40;;;5.32;;
79308;SDS011;68767;53.078;7.386;2023-09-30T00:28:48;23.20;;;5.57;;
79308;SDS011;68767;53.078;7.386;2023-09-30T00:31:15;15.10;;;4.05;;
79308;SDS011;68767;53.078;7.386;2023-09-30T00:33:43;24.02;;;5.45;;
79308;SDS011;68767;53.078;7.386;2023-09-30T00:36:10;19.38;;;4.95;;
79308;SDS011;68767;53.078;7.386;2023-09-30T00:38:38;18.42;;;4.05;;
79308;SDS011;68767;53.078;7.386;2023-09-30T00:41:06;23.02;;;5.68;;
79308;SDS011;68767;53.078;7.386;2023-09-30T00:43:33;14.73;;;4.18;;
79308;SDS011;68767;53.078;7.386;2023-09-30T00:46:02;18.45;;;4.43;;
79308;SDS011;68767;53.078;7.386;2023-09-30T00:48:33;19.33;;;4.75;;
79308;SDS011;68767;53.078;7.386;2023-09-30T00:51:01;18.25;;;4.55;;
79308;SDS011;68767;53.078;7.386;2023-09-30T00:53:29;17.05;;;3.63;;
79308;SDS011;68767;53.078;7.386;2023-09-30T00:55:57;20.13;;;4.82;;
79308;SDS011;68767;53.078;7.386;2023-09-30T00:58:25;23.95;;;4.57;;
79308;SDS011;68767;53.078;7.386;2023-09-30T01:00:55;19.50;;;4.68;;
79308;SDS011;68767;53.078;7.386;2023-09-30T01:03:24;31.88;;;5.45;;
79308;SDS011;68767;53.078;7.386;2023-09-30T01:05:51;25.08;;;7.32;;
79308;SDS011;68767;53.078;7.386;2023-09-30T01:08:20;15.45;;;5.07;;
79308;SDS011;68767;53.078;7.386;2023-09-30T01:10:48;16.58;;;5.47;;
79308;SDS011;68767;53.078;7.386;2023-09-30T01:13:16;21.95;;;4.50;;
79308;SDS011;68767;53.078;7.386;2023-09-30T01:15:43;17.73;;;3.95;;
79308;SDS011;68767;53.078;7.386;2023-09-30T01:18:10;19.50;;;4.95;;
79308;SDS011;68767;53.078;7.386;2023-09-30T01:20:38;22.40;;;5.70;;
79308;SDS011;68767;53.078;7.386;2023-09-30T01:23:05;22.83;;;4.22;;
79308;SDS011;68767;53.078;7.386;2023-09-30T01:25:32;24.67;;;4.68;;
79308;SDS011;68767;53.078;7.386;2023-09-30T01:28:01;20.70;;;5.25;;
79308;SDS011;68767;53.078;7.386;2023-09-30T01:30:33;15.60;;;4.88;;
79308;SDS011;68767;53.078;7.386;2023-09-30T01:33:00;17.00;;;4.60;;
79308;SDS011;68767;53.078;7.386;2023-09-30T01:35:27;20.10;;;4.95;;
79308;SDS011;68767;53.078;7.386;2023-09-30T01:37:54;22.67;;;5.85;;
79308;SDS011;68767;53.078;7.386;2023-09-30T01:40:21;15.10;;;4.80;;
79308;SDS011;68767;53.078;7.386;2023-09-30T01:42:48;19.52;;;5.15;;
79308;SDS011;68767;53.078;7.386;2023-09-30T01:45:15;21.90;;;4.95;;
79308;SDS011;68767;53.078;7.386;2023-09-30T01:47:42;15.73;;;5.88;;
79308;SDS011;68767;53.078;7.386;2023-09-30T01:50:09;20.95;;;4.97;;
79308;SDS011;68767;53.078;7.386;2023-09-30T01:52:37;15.88;;;5.40;;
79308;SDS011;68767;53.078;7.386;2023-09-30T01:55:04;14.50;;;5.18;;
79308;SDS011;68767;53.078;7.386;2023-09-30T01:57:31;20.70;;;5.40;;
79308;SDS011;68767;53.078;7.386;2023-09-30T01:59:58;23.15;;;5.05;;
79308;SDS011;68767;53.078;7.386;2023-09-30T02:02:25;13.23;;;4.72;;
79308;SDS011;68767;53.078;7.386;2023-09-30T02:04:53;19.75;;;4.90;;
79308;SDS011;68767;53.078;7.386;2023-09-30T02:07:20;32.90;;;5.07;;
79308;SDS011;68767;53.078;7.386;2023-09-30T02:09:48;21.38;;;4.90;;
79308;SDS011;68767;53.078;7.386;2023-09-30T02:12:15;27.23;;;4.80;;
79308;SDS011;68767;53.078;7.386;2023-09-30T02:14:44;21.23;;;5.50;;
79308;SDS011;68767;53.078;7.386;2023-09-30T02:17:12;25.73;;;5.70;;
79308;SDS011;68767;53.078;7.386;2023-09-30T02:19:39;21.88;;;5.72;;
79308;SDS011;68767;53.078;7.386;2023-09-30T02:22:07;22.35;;;5.60;;
79308;SDS011;68767;53.078;7.386;2023-09-30T02:24:33;19.77;;;5.07;;
79308;SDS011;68767;53.078;7.386;2023-09-30T02:27:01;24.90;;;5.40;;
79308;SDS011;68767;53.078;7.386;2023-09-30T02:29:28;19.63;;;4.97;;
79308;SDS011;68767;53.078;7.386;2023-09-30T02:31:55;20.75;;;4.80;;
79308;SDS011;68767;53.078;7.386;2023-09-30T02:34:26;17.75;;;5.07;;
79308;SDS011;68767;53.078;7.386;2023-09-30T02:36:53;13.73;;;4.60;;
79308;SDS011;68767;53.078;7.386;2023-09-30T02:39:22;23.80;;;5.82;;
79308;SDS011;68767;53.078;7.386;2023-09-30T02:41:49;18.13;;;5.00;;
79308;SDS011;68767;53.078;7.386;2023-09-30T02:44:16;26.75;;;5.35;;
79308;SDS011;68767;53.078;7.386;2023-09-30T02:46:43;14.88;;;5.70;;
79308;SDS011;68767;53.078;7.386;2023-09-30T02:49:11;20.75;;;5.63;;
79308;SDS011;68767;53.078;7.386;2023-09-30T02:51:38;24.00;;;5.00;;
79308;SDS011;68767;53.078;7.386;2023-09-30T02:54:05;19.05;;;4.78;;
79308;SDS011;68767;53.078;7.386;2023-09-30T02:56:32;18.98;;;5.65;;
79308;SDS011;68767;53.078;7.386;2023-09-30T02:58:59;19.95;;;5.07;;
79308;SDS011;68767;53.078;7.386;2023-09-30T03:01:26;22.67;;;4.93;;
79308;SDS011;68767;53.078;7.386;2023-09-30T03:03:54;15.63;;;4.88;;
79308;SDS011;68767;53.078;7.386;2023-09-30T03:06:22;23.13;;;5.60;;
79308;SDS011;68767;53.078;7.386;2023-09-30T03:08:49;22.98;;;5.32;;
79308;SDS011;68767;53.078;7.386;2023-09-30T03:11:15;15.90;;;4.13;;
79308;SDS011;68767;53.078;7.386;2023-09-30T03:13:43;20.27;;;5.00;;
79308;SDS011;68767;53.078;7.386;2023-09-30T03:16:10;20.70;;;5.32;;
79308;SDS011;68767;53.078;7.386;2023-09-30T03:18:37;24.50;;;5.57;;
79308;SDS011;68767;53.078;7.386;2023-09-30T03:21:14;21.73;;;5.07;;
79308;SDS011;68767;53.078;7.386;2023-09-30T03:23:42;17.05;;;5.65;;
79308;SDS011;68767;53.078;7.386;2023-09-30T03:26:09;16.30;;;4.75;;
79308;SDS011;68767;53.078;7.386;2023-09-30T03:28:37;24.00;;;5.88;;
79308;SDS011;68767;53.078;7.386;2023-09-30T03:31:05;17.98;;;5.45;;
79308;SDS011;68767;53.078;7.386;2023-09-30T03:33:32;17.80;;;5.10;;
79308;SDS011;68767;53.078;7.386;2023-09-30T03:35:59;19.88;;;5.30;;
79308;SDS011;68767;53.078;7.386;2023-09-30T03:38:26;14.85;;;5.38;;
79308;SDS011;68767;53.078;7.386;2023-09-30T03:40:53;15.38;;;5.10;;
79308;SDS011;68767;53.078;7.386;2023-09-30T03:43:21;21.45;;;5.22;;
79308;SDS011;68767;53.078;7.386;2023-09-30T03:45:49;18.23;;;5.10;;
79308;SDS011;68767;53.078;7.386;2023-09-30T03:48:17;19.33;;;4.57;;
79308;SDS011;68767;53.078;7.386;2023-09-30T03:50:45;24.25;;;5.88;;
79308;SDS011;68767;53.078;7.386;2023-09-30T03:53:12;19.42;;;4.95;;
79308;SDS011;68767;53.078;7.386;2023-09-30T03:55:39;20.92;;;5.03;;
79308;SDS011;68767;53.078;7.386;2023-09-30T03:58:07;26.25;;;5.25;;
79308;SDS011;68767;53.078;7.386;2023-09-30T04:00:34;21.80;;;5.40;;
79308;SDS011;68767;53.078;7.386;2023-09-30T04:03:03;21.67;;;6.10;;
79308;SDS011;68767;53.078;7.386;2023-09-30T04:05:30;20.40;;;5.63;;
79308;SDS011;68767;53.078;7.386;2023-09-30T04:08:00;21.42;;;5.15;;
79308;SDS011;68767;53.078;7.386;2023-09-30T04:10:27;17.83;;;4.82;;
79308;SDS011;68767;53.078;7.386;2023-09-30T04:12:56;16.23;;;4.50;;
79308;SDS011;68767;53.078;7.386;2023-09-30T04:15:23;25.35;;;7.78;;
79308;SDS011;68767;53.078;7.386;2023-09-30T04:17:50;22.25;;;6.13;;
79308;SDS011;68767;53.078;7.386;2023-09-30T04:20:18;19.70;;;5.90;;
79308;SDS011;68767;53.078;7.386;2023-09-30T04:22:50;22.33;;;5.70;;
79308;SDS011;68767;53.078;7.386;2023-09-30T04:25:17;28.10;;;6.47;;
79308;SDS011;68767;53.078;7.386;2023-09-30T04:27:46;17.58;;;5.53;;
79308;SDS011;68767;53.078;7.386;2023-09-30T04:30:16;13.43;;;5.10;;
79308;SDS011;68767;53.078;7.386;2023-09-30T04:32:44;26.40;;;6.45;;
79308;SDS011;68767;53.078;7.386;2023-09-30T04:35:11;18.05;;;5.47;;
79308;SDS011;68767;53.078;7.386;2023-09-30T04:37:38;18.67;;;5.90;;
79308;SDS011;68767;53.078;7.386;2023-09-30T04:40:07;18.65;;;5.20;;
79308;SDS011;68767;53.078;7.386;2023-09-30T04:42:42;20.83;;;6.90;;
79308;SDS011;68767;53.078;7.386;2023-09-30T04:45:11;17.33;;;5.68;;
79308;SDS011;68767;53.078;7.386;2023-09-30T04:47:39;16.63;;;6.53;;
79308;SDS011;68767;53.078;7.386;2023-09-30T04:50:07;21.80;;;5.65;;
79308;SDS011;68767;53.078;7.386;2023-09-30T04:52:34;15.10;;;5.95;;
79308;SDS011;68767;53.078;7.386;2023-09-30T04:55:02;16.83;;;5.47;;
79308;SDS011;68767;53.078;7.386;2023-09-30T04:57:30;18.77;;;5.32;;
79308;SDS011;68767;53.078;7.386;2023-09-30T05:00:01;21.48;;;6.78;;
79308;SDS011;68767;53.078;7.386;2023-09-30T05:02:27;21.58;;;6.50;;
79308;SDS011;68767;53.078;7.386;2023-09-30T05:04:54;20.55;;;5.93;;
79308;SDS011;68767;53.078;7.386;2023-09-30T05:07:21;26.58;;;5.57;;
79308;SDS011;68767;53.078;7.386;2023-09-30T05:09:48;22.70;;;7.05;;
79308;SDS011;68767;53.078;7.386;2023-09-30T05:12:15;23.15;;;7.57;;
79308;SDS011;68767;53.078;7.386;2023-09-30T05:14:43;19.48;;;7.05;;
79308;SDS011;68767;53.078;7.386;2023-09-30T05:17:10;20.60;;;6.30;;
79308;SDS011;68767;53.078;7.386;2023-09-30T05:19:37;27.38;;;7.95;;
79308;SDS011;68767;53.078;7.386;2023-09-30T05:22:04;35.22;;;9.10;;
79308;SDS011;68767;53.078;7.386;2023-09-30T05:24:31;45.42;;;16.65;;
79308;SDS011;68767;53.078;7.386;2023-09-30T05:26:58;16.95;;;6.82;;
79308;SDS011;68767;53.078;7.386;2023-09-30T05:29:25;23.50;;;7.07;;
79308;SDS011;68767;53.078;7.386;2023-09-30T05:31:52;23.33;;;5.47;;
79308;SDS011;68767;53.078;7.386;2023-09-30T05:34:19;27.55;;;7.75;;
79308;SDS011;68767;53.078;7.386;2023-09-30T05:36:46;19.08;;;6.47;;
79308;SDS011;68767;53.078;7.386;2023-09-30T05:39:13;20.30;;;6.05;;
79308;SDS011;68767;53.078;7.386;2023-09-30T05:41:46;16.15;;;6.15;;
79308;SDS011;68767;53.078;7.386;2023-09-30T05:44:13;22.67;;;6.97;;
79308;SDS011;68767;53.078;7.386;2023-09-30T05:46:42;20.98;;;6.90;;
79308;SDS011;68767;53.078;7.386;2023-09-30T05:49:10;19.55;;;5.55;;
79308;SDS011;68767;53.078;7.386;2023-09-30T05:51:37;19.25;;;6.65;;
79308;SDS011;68767;53.078;7.386;2023-09-30T05:54:05;18.90;;;7.00;;
79308;SDS011;68767;53.078;7.386;2023-09-30T05:56:32;18.17;;;7.15;;
79308;SDS011;68767;53.078;7.386;2023-09-30T05:58:59;26.40;;;7.40;;
79308;SDS011;68767;53.078;7.386;2023-09-30T06:01:26;19.92;;;7.07;;
79308;SDS011;68767;53.078;7.386;2023-09-30T06:03:54;23.45;;;6.72;;
79308;SDS011;68767;53.078;7.386;2023-09-30T06:06:21;19.70;;;7.30;;
79308;SDS011;68767;53.078;7.386;2023-09-30T06:08:50;25.45;;;7.20;;
79308;SDS011;68767;53.078;7.386;2023-09-30T06:11:17;21.00;;;7.97;;
79308;SDS011;68767;53.078;7.386;2023-09-30T06:13:45;23.45;;;6.57;;
79308;SDS011;68767;53.078;7.386;2023-09-30T06:16:16;21.90;;;7.10;;
79308;SDS011;68767;53.078;7.386;2023-09-30T06:18:44;24.58;;;7.55;;
79308;SDS011;68767;53.078;7.386;2023-09-30T06:21:12;25.00;;;7.03;;
79308;SDS011;68767;53.078;7.386;2023-09-30T06:23:41;44.65;;;18.40;;
79308;SDS011;68767;53.078;7.386;2023-09-30T06:26:08;29.80;;;11.55;;
79308;SDS011;68767;53.078;7.386;2023-09-30T06:28:36;22.20;;;7.88;;
79308;SDS011;68767;53.078;7.386;2023-09-30T06:31:07;24.83;;;6.55;;
79308;SDS011;68767;53.078;7.386;2023-09-30T06:33:35;29.67;;;6.22;;
79308;SDS011;68767;53.078;7.386;2023-09-30T06:41:17;29.40;;;8.48;;
79308;SDS011;68767;53.078;7.386;2023-09-30T06:43:45;19.00;;;6.15;;
79308;SDS011;68767;53.078;7.386;2023-09-30T06:46:13;20.05;;;6.78;;
79308;SDS011;68767;53.078;7.386;2023-09-30T06:48:40;23.17;;;6.38;;
79308;SDS011;68767;53.078;7.386;2023-09-30T06:51:12;24.65;;;7.00;;
79308;SDS011;68767;53.078;7.386;2023-09-30T06:53:41;18.80;;;7.07;;
79308;SDS011;68767;53.078;7.386;2023-09-30T06:56:07;20.05;;;7.32;;
79308;SDS011;68767;53.078;7.386;2023-09-30T06:58:34;19.27;;;5.60;;
79308;SDS011;68767;53.078;7.386;2023-09-30T07:01:01;18.35;;;5.72;;
79308;SDS011;68767;53.078;7.386;2023-09-30T07:03:29;16.90;;;6.00;;
79308;SDS011;68767;53.078;7.386;2023-09-30T07:05:57;21.45;;;6.03;;
79308;SDS011;68767;53.078;7.386;2023-09-30T07:08:27;17.40;;;6.13;;
79308;SDS011;68767;53.078;7.386;2023-09-30T07:10:56;16.80;;;6.40;;
79308;SDS011;68767;53.078;7.386;2023-09-30T07:13:23;18.75;;;6.35;;
79308;SDS011;68767;53.078;7.386;2023-09-30T07:15:50;16.85;;;6.57;;
79308;SDS011;68767;53.078;7.386;2023-09-30T07:18:17;20.73;;;6.88;;
79308;SDS011;68767;53.078;7.386;2023-09-30T07:20:44;13.63;;;5.53;;
79308;SDS011;68767;53.078;7.386;2023-09-30T07:23:15;17.83;;;5.43;;
79308;SDS011;68767;53.078;7.386;2023-09-30T07:25:46;15.68;;;6.55;;
79308;SDS011;68767;53.078;7.386;2023-09-30T07:28:14;16.00;;;6.38;;
79308;SDS011;68767;53.078;7.386;2023-09-30T07:30:41;14.52;;;5.70;;
79308;SDS011;68767;53.078;7.386;2023-09-30T07:33:08;22.15;;;6.50;;
79308;SDS011;68767;53.078;7.386;2023-09-30T07:35:36;17.55;;;6.53;;
79308;SDS011;68767;53.078;7.386;2023-09-30T07:38:05;16.05;;;7.25;;
79308;SDS011;68767;53.078;7.386;2023-09-30T07:40:32;16.38;;;5.75;;
79308;SDS011;68767;53.078;7.386;2023-09-30T07:42:59;15.02;;;5.65;;
79308;SDS011;68767;53.078;7.386;2023-09-30T07:45:27;19.55;;;9.38;;
79308;SDS011;68767;53.078;7.386;2023-09-30T07:47:55;24.73;;;7.93;;
79308;SDS011;68767;53.078;7.386;2023-09-30T07:50:22;22.92;;;8.40;;
79308;SDS011;68767;53.078;7.386;2023-09-30T07:52:49;21.85;;;6.35;;
79308;SDS011;68767;53.078;7.386;2023-09-30T07:55:16;16.13;;;5.05;;
79308;SDS011;68767;53.078;7.386;2023-09-30T07:57:43;17.13;;;5.55;;
79308;SDS011;68767;53.078;7.386;2023-09-30T08:00:10;16.83;;;6.60;;
79308;SDS011;68767;53.078;7.386;2023-09-30T08:02:42;17.95;;;5.30;;
79308;SDS011;68767;53.078;7.386;2023-09-30T08:05:10;17.08;;;5.25;;
79308;SDS011;68767;53.078;7.386;2023-09-30T08:07:37;14.52;;;6.07;;
79308;SDS011;68767;53.078;7.386;2023-09-30T08:10:06;24.55;;;5.60;;
79308;SDS011;68767;53.078;7.386;2023-09-30T08:12:39;13.90;;;6.10;;
79308;SDS011;68767;53.078;7.386;2023-09-30T08:15:08;12.32;;;4.65;;
79308;SDS011;68767;53.078;7.386;2023-09-30T08:17:38;16.92;;;6.10;;
79308;SDS011;68767;53.078;7.386;2023-09-30T08:20:06;13.82;;;5.00;;
79308;SDS011;68767;53.078;7.386;2023-09-30T08:22:35;16.48;;;5.30;;
79308;SDS011;68767;53.078;7.386;2023-09-30T08:25:02;14.40;;;4.90;;
79308;SDS011;68767;53.078;7.386;2023-09-30T08:27:29;13.93;;;5.45;;
79308;SDS011;68767;53.078;7.386;2023-09-30T08:29:56;17.33;;;5.50;;
79308;SDS011;68767;53.078;7.386;2023-09-30T08:32:23;11.63;;;5.65;;
79308;SDS011;68767;53.078;7.386;2023-09-30T08:34:50;12.38;;;4.90;;
79308;SDS011;68767;53.078;7.386;2023-09-30T08:37:17;20.52;;;6.07;;
79308;SDS011;68767;53.078;7.386;2023-09-30T08:39:44;13.02;;;5.25;;
79308;SDS011;68767;53.078;7.386;2023-09-30T08:42:11;11.30;;;4.90;;
79308;SDS011;68767;53.078;7.386;2023-09-30T08:44:38;14.90;;;4.78;;
79308;SDS011;68767;53.078;7.386;2023-09-30T08:47:06;17.70;;;5.43;;
79308;SDS011;68767;53.078;7.386;2023-09-30T08:49:39;14.50;;;4.50;;
79308;SDS011;68767;53.078;7.386;2023-09-30T08:52:09;9.70;;;3.92;;
79308;SDS011;68767;53.078;7.386;2023-09-30T08:54:37;14.20;;;4.60;;
79308;SDS011;68767;53.078;7.386;2023-09-30T08:57:05;14.07;;;4.50;;
79308;SDS011;68767;53.078;7.386;2023-09-30T08:59:36;12.75;;;4.40;;
79308;SDS011;68767;53.078;7.386;2023-09-30T09:02:08;9.45;;;3.65;;
79308;SDS011;68767;53.078;7.386;2023-09-30T09:04:36;15.00;;;4.32;;
79308;SDS011;68767;53.078;7.386;2023-09-30T09:07:04;11.80;;;3.95;;
79308;SDS011;68767;53.078;7.386;2023-09-30T09:09:31;13.15;;;4.70;;
79308;SDS011;68767;53.078;7.386;2023-09-30T09:11:59;11.85;;;4.55;;
79308;SDS011;68767;53.078;7.386;2023-09-30T09:14:39;10.20;;;4.47;;
79308;SDS011;68767;53.078;7.386;2023-09-30T09:17:07;14.43;;;3.92;;
79308;SDS011;68767;53.078;7.386;2023-09-30T09:19:34;13.45;;;4.30;;
79308;SDS011;68767;53.078;7.386;2023-09-30T09:22:02;11.18;;;3.65;;
79308;SDS011;68767;53.078;7.386;2023-09-30T09:24:34;18.23;;;5.05;;
79308;SDS011;68767;53.078;7.386;2023-09-30T09:29:36;16.83;;;4.03;;
79308;SDS011;68767;53.078;7.386;2023-09-30T09:32:15;14.48;;;3.50;;
79308;SDS011;68767;53.078;7.386;2023-09-30T09:34:43;12.38;;;3.30;;
79308;SDS011;68767;53.078;7.386;2023-09-30T09:37:18;13.52;;;3.55;;
79308;SDS011;68767;53.078;7.386;2023-09-30T09:39:52;17.02;;;3.50;;
79308;SDS011;68767;53.078;7.386;2023-09-30T09:42:23;15.85;;;3.78;;
79308;SDS011;68767;53.078;7.386;2023-09-30T09:44:54;11.60;;;3.00;;
79308;SDS011;68767;53.078;7.386;2023-09-30T09:47:23;13.75;;;3.20;;
79308;SDS011;68767;53.078;7.386;2023-09-30T09:49:51;12.00;;;2.75;;
79308;SDS011;68767;53.078;7.386;2023-09-30T09:52:19;8.20;;;2.95;;
79308;SDS011;68767;53.078;7.386;2023-09-30T09:54:47;9.80;;;3.38;;
79308;SDS011;68767;53.078;7.386;2023-09-30T09:57:19;14.20;;;3.17;;
79308;SDS011;68767;53.078;7.386;2023-09-30T09:59:46;15.70;;;3.25;;
79308;SDS011;68767;53.078;7.386;2023-09-30T10:02:14;12.23;;;2.97;;
79308;SDS011;68767;53.078;7.386;2023-09-30T10:04:43;12.32;;;4.20;;
79308;SDS011;68767;53.078;7.386;2023-09-30T10:07:13;8.50;;;2.97;;
79308;SDS011;68767;53.078;7.386;2023-09-30T10:09:46;15.70;;;2.67;;
79308;SDS011;68767;53.078;7.386;2023-09-30T10:12:17;9.30;;;2.67;;
79308;SDS011;68767;53.078;7.386;2023-09-30T10:14:45;11.45;;;2.78;;
79308;SDS011;68767;53.078;7.386;2023-09-30T10:17:12;9.82;;;2.90;;
79308;SDS011;68767;53.078;7.386;2023-09-30T10:22:33;11.18;;;2.78;;
79308;SDS011;68767;53.078;7.386;2023-09-30T10:25:00;11.77;;;3.00;;
79308;SDS011;68767;53.078;7.386;2023-09-30T10:27:28;13.27;;;3.00;;
79308;SDS011;68767;53.078;7.386;2023-09-30T10:30:14;15.90;;;3.75;;
79308;SDS011;68767;53.078;7.386;2023-09-30T10:40:54;15.02;;;3.15;;
79308;SDS011;68767;53.078;7.386;2023-09-30T10:43:28;12.70;;;3.03;;
79308;SDS011;68767;53.078;7.386;2023-09-30T10:45:59;13.15;;;2.55;;
79308;SDS011;68767;53.078;7.386;2023-09-30T10:50:57;12.10;;;2.72;;
79308;SDS011;68767;53.078;7.386;2023-09-30T10:53:27;9.43;;;2.40;;
79308;SDS011;68767;53.078;7.386;2023-09-30T10:55:55;10.80;;;2.22;;
79308;SDS011;68767;53.078;7.386;2023-09-30T11:01:06;9.80;;;2.15;;
79308;SDS011;68767;53.078;7.386;2023-09-30T11:03:33;16.05;;;2.10;;
79308;SDS011;68767;53.078;7.386;2023-09-30T11:06:00;7.47;;;2.10;;
79308;SDS011;68767;53.078;7.386;2023-09-30T11:08:41;17.15;;;2.47;;
79308;SDS011;68767;53.078;7.386;2023-09-30T11:11:13;15.70;;;2.40;;
79308;SDS011;68767;53.078;7.386;2023-09-30T11:13:41;6.32;;;2.13;;
79308;SDS011;68767;53.078;7.386;2023-09-30T11:16:08;7.88;;;2.33;;
79308;SDS011;68767;53.078;7.386;2023-09-30T11:18:35;9.73;;;2.72;;
79308;SDS011;68767;53.078;7.386;2023-09-30T11:21:05;8.88;;;2.08;;
79308;SDS011;68767;53.078;7.386;2023-09-30T11:23:40;4.53;;;1.92;;
79308;SDS011;68767;53.078;7.386;2023-09-30T11:26:08;8.55;;;2.08;;
79308;SDS011;68767;53.078;7.386;2023-09-30T11:28:39;7.85;;;1.90;;
79308;SDS011;68767;53.078;7.386;2023-09-30T11:31:08;7.93;;;2.30;;
79308;SDS011;68767;53.078;7.386;2023-09-30T11:33:50;11.40;;;2.40;;
79308;SDS011;68767;53.078;7.386;2023-09-30T11:36:20;7.40;;;2.10;;
79308;SDS011;68767;53.078;7.386;2023-09-30T11:38:48;8.02;;;1.92;;
79308;SDS011;68767;53.078;7.386;2023-09-30T11:41:17;10.25;;;2.25;;
79308;SDS011;68767;53.078;7.386;2023-09-30T11:43:58;6.90;;;1.85;;
79308;SDS011;68767;53.078;7.386;2023-09-30T11:46:27;9.50;;;1.92;;
79308;SDS011;68767;53.078;7.386;2023-09-30T11:49:02;6.68;;;1.75;;
79308;SDS011;68767;53.078;7.386;2023-09-30T11:51:41;8.68;;;2.25;;
79308;SDS011;68767;53.078;7.386;2023-09-30T11:54:15;11.05;;;2.10;;
79308;SDS011;68767;53.078;7.386;2023-09-30T11:56:43;10.60;;;2.67;;
79308;SDS011;68767;53.078;7.386;2023-09-30T11:59:10;10.85;;;2.78;;
79308;SDS011;68767;53.078;7.386;2023-09-30T12:01:37;8.75;;;2.30;;
79308;SDS011;68767;53.078;7.386;2023-09-30T12:04:04;8.80;;;1.90;;
79308;SDS011;68767;53.078;7.386;2023-09-30T12:06:32;6.25;;;1.70;;
79308;SDS011;68767;53.078;7.386;2023-09-30T12:09:01;6.03;;;2.55;;
79308;SDS011;68767;53.078;7.386;2023-09-30T12:11:29;8.00;;;2.03;;
79308;SDS011;68767;53.078;7.386;2023-09-30T12:13:56;7.95;;;1.80;;
79308;SDS011;68767;53.078;7.386;2023-09-30T12:16:23;12.00;;;2.17;;
79308;SDS011;68767;53.078;7.386;2023-09-30T12:18:50;9.73;;;2.13;;
79308;SDS011;68767;53.078;7.386;2023-09-30T12:21:17;5.88;;;2.00;;
79308;SDS011;68767;53.078;7.386;2023-09-30T12:23:46;8.77;;;2.25;;
79308;SDS011;68767;53.078;7.386;2023-09-30T12:26:15;8.48;;;2.58;;
79308;SDS011;68767;53.078;7.386;2023-09-30T12:28:46;9.23;;;3.20;;
79308;SDS011;68767;53.078;7.386;2023-09-30T12:31:13;6.95;;;2.03;;
79308;SDS011;68767;53.078;7.386;2023-09-30T12:33:42;8.88;;;1.92;;
79308;SDS011;68767;53.078;7.386;2023-09-30T12:36:09;10.05;;;2.65;;
79308;SDS011;68767;53.078;7.386;2023-09-30T12:38:36;7.05;;;1.90;;
79308;SDS011;68767;53.078;7.386;2023-09-30T12:41:03;6.25;;;2.70;;
79308;SDS011;68767;53.078;7.386;2023-09-30T12:43:30;9.25;;;2.25;;
79308;SDS011;68767;53.078;7.386;2023-09-30T12:45:57;7.07;;;1.90;;
79308;SDS011;68767;53.078;7.386;2023-09-30T12:48:24;10.00;;;2.60;;
79308;SDS011;68767;53.078;7.386;2023-09-30T12:50:51;7.85;;;2.20;;
79308;SDS011;68767;53.078;7.386;2023-09-30T12:53:18;7.35;;;2.40;;
79308;SDS011;68767;53.078;7.386;2023-09-30T12:55:45;10.50;;;3.15;;
79308;SDS011;68767;53.078;7.386;2023-09-30T12:58:11;19.13;;;6.70;;
79308;SDS011;68767;53.078;7.386;2023-09-30T13:00:38;10.80;;;2.53;;
79308;SDS011;68767;53.078;7.386;2023-09-30T13:03:05;8.13;;;2.67;;
79308;SDS011;68767;53.078;7.386;2023-09-30T13:05:34;13.43;;;2.55;;
79308;SDS011;68767;53.078;7.386;2023-09-30T13:08:01;7.75;;;2.58;;
79308;SDS011;68767;53.078;7.386;2023-09-30T13:10:28;7.20;;;2.70;;
79308;SDS011;68767;53.078;7.386;2023-09-30T13:12:56;9.70;;;2.05;;
79308;SDS011;68767;53.078;7.386;2023-09-30T13:15:24;8.82;;;2.35;;
79308;SDS011;68767;53.078;7.386;2023-09-30T13:17:52;7.93;;;2.78;;
79308;SDS011;68767;53.078;7.386;2023-09-30T13:20:20;10.70;;;3.72;;
79308;SDS011;68767;53.078;7.386;2023-09-30T13:22:46;9.90;;;1.90;;
79308;SDS011;68767;53.078;7.386;2023-09-30T13:25:14;7.57;;;3.45;;
79308;SDS011;68767;53.078;7.386;2023-09-30T13:27:42;6.65;;;2.20;;
79308;SDS011;68767;53.078;7.386;2023-09-30T13:30:10;10.90;;;2.50;;
79308;SDS011;68767;53.078;7.386;2023-09-30T13:32:37;6.00;;;2.08;;
79308;SDS011;68767;53.078;7.386;2023-09-30T13:35:05;6.75;;;1.95;;
79308;SDS011;68767;53.078;7.386;2023-09-30T13:37:33;7.00;;;2.17;;
79308;SDS011;68767;53.078;7.386;2023-09-30T13:40:00;14.15;;;3.17;;
79308;SDS011;68767;53.078;7.386;2023-09-30T13:42:29;8.93;;;2.30;;
79308;SDS011;68767;53.078;7.386;2023-09-30T13:44:56;10.23;;;2.83;;
79308;SDS011;68767;53.078;7.386;2023-09-30T13:47:24;10.20;;;2.83;;
79308;SDS011;68767;53.078;7.386;2023-09-30T13:49:52;12.07;;;3.10;;
79308;SDS011;68767;53.078;7.386;2023-09-30T13:52:19;9.48;;;2.72;;
79308;SDS011;68767;53.078;7.386;2023-09-30T13:54:46;11.10;;;2.85;;
79308;SDS011;68767;53.078;7.386;2023-09-30T13:57:13;6.53;;;2.40;;
79308;SDS011;68767;53.078;7.386;2023-09-30T13:59:41;7.85;;;3.03;;
79308;SDS011;68767;53.078;7.386;2023-09-30T14:02:11;8.50;;;2.78;;
79308;SDS011;68767;53.078;7.386;2023-09-30T14:04:39;9.13;;;2.22;;
79308;SDS011;68767;53.078;7.386;2023-09-30T14:07:06;9.00;;;2.45;;
79308;SDS011;68767;53.078;7.386;2023-09-30T14:09:34;8.68;;;2.20;;
79308;SDS011;68767;53.078;7.386;2023-09-30T14:12:02;8.40;;;2.50;;
79308;SDS011;68767;53.078;7.386;2023-09-30T14:14:32;9.70;;;2.50;;
79308;SDS011;68767;53.078;7.386;2023-09-30T14:17:01;7.35;;;2.30;;
79308;SDS011;68767;53.078;7.386;2023-09-30T14:19:34;8.65;;;2.20;;
79308;SDS011;68767;53.078;7.386;2023-09-30T14:22:01;9.57;;;2.33;;
79308;SDS011;68767;53.078;7.386;2023-09-30T14:24:29;7.57;;;2.42;;
79308;SDS011;68767;53.078;7.386;2023-09-30T14:26:56;13.93;;;2.60;;
79308;SDS011;68767;53.078;7.386;2023-09-30T14:29:23;9.82;;;2.35;;
79308;SDS011;68767;53.078;7.386;2023-09-30T14:31:51;9.75;;;2.55;;
79308;SDS011;68767;53.078;7.386;2023-09-30T14:34:21;7.53;;;2.35;;
79308;SDS011;68767;53.078;7.386;2023-09-30T14:36:49;6.03;;;2.22;;
79308;SDS011;68767;53.078;7.386;2023-09-30T14:39:17;6.57;;;2.35;;
79308;SDS011;68767;53.078;7.386;2023-09-30T14:41:45;6.78;;;1.90;;
79308;SDS011;68767;53.078;7.386;2023-09-30T14:44:12;10.85;;;3.05;;
79308;SDS011;68767;53.078;7.386;2023-09-30T14:46:40;14.60;;;2.50;;
79308;SDS011;68767;53.078;7.386;2023-09-30T14:49:07;10.25;;;2.33;;
79308;SDS011;68767;53.078;7.386;2023-09-30T14:51:34;7.35;;;2.30;;
79308;SDS011;68767;53.078;7.386;2023-09-30T14:54:04;12.70;;;2.42;;
79308;SDS011;68767;53.078;7.386;2023-09-30T14:56:32;9.02;;;2.08;;
79308;SDS011;68767;53.078;7.386;2023-09-30T14:58:59;6.30;;;2.25;;
79308;SDS011;68767;53.078;7.386;2023-09-30T15:01:26;6.03;;;2.10;;
79308;SDS011;68767;53.078;7.386;2023-09-30T15:03:54;6.53;;;2.05;;
79308;SDS011;68767;53.078;7.386;2023-09-30T15:06:21;14.65;;;2.33;;
79308;SDS011;68767;53.078;7.386;2023-09-30T15:08:50;6.72;;;2.05;;